sensor_id;sensor_type;location;lat;lon;timestamp;temperature;humidity
37285;DHT22;23172;53.550;9.964;2023-02-21T00:02:11;11.00;99.90
37285;DHT22;23172;53.550;9.964;2023-02-21T00:07:32;11.10;99.90
37285;DHT22;23172;53.550;9.964;2023-02-21T00:12:51;11.00;99.90
37285;DHT22;23172;53.550;9.964;2023-02-21T00:18:11;11.00;99.90
37285;DHT22;23172;53.550;9.964;2023-02-21T00:23:32;11.00;99.90
37285;DHT22;23172;53.550;9.964;2023-02-21T00:28:52;11.00;99.90
37285;DHT22;23172;53.550;9.964;2023-02-21T00:34:12;11.00;99.90
37285;DHT22;23172;53.550;9.964;2023-02-21T00:39:31;11.00;99.90
37285;DHT22;23172;53.550;9.964;2023-02-21T00:44:50;11.00;99.90
37285;DHT22;23172;53.550;9.964;2023-02-21T00:50:12;11.00;99.90
37285;DHT22;23172;53.550;9.964;2023-02-21T00:55:31;10.90;99.90
37285;DHT22;23172;53.550;9.964;2023-02-21T01:00:50;10.90;99.90
37285;DHT22;23172;53.550;9.964;2023-02-21T01:06:11;10.80;99.90
37285;DHT22;23172;53.550;9.964;2023-02-21T01:11:31;10.90;99.90
37285;DHT22;23172;53.550;9.964;2023-02-21T01:16:50;10.90;99.90
37285;DHT22;23172;53.550;9.964;2023-02-21T01:22:11;10.90;99.90
37285;DHT22;23172;53.550;9.964;2023-02-21T01:27:30;10.90;99.90
37285;DHT22;23172;53.550;9.964;2023-02-21T01:32:50;10.90;99.90
37285;DHT22;23172;53.550;9.964;2023-02-21T01:38:10;10.90;99.90
37285;DHT22;23172;53.550;9.964;2023-02-21T01:43:30;10.90;99.90
37285;DHT22;23172;53.550;9.964;2023-02-21T01:48:51;10.80;99.90
37285;DHT22;23172;53.550;9.964;2023-02-21T01:54:12;10.80;99.90
37285;DHT22;23172;53.550;9.964;2023-02-21T01:59:32;10.80;99.90
37285;DHT22;23172;53.550;9.964;2023-02-21T02:04:52;10.80;99.90
37285;DHT22;23172;53.550;9.964;2023-02-21T02:10:13;10.80;99.90
37285;DHT22;23172;53.550;9.964;2023-02-21T02:15:53;10.80;99.90
37285;DHT22;23172;53.550;9.964;2023-02-21T02:21:35;10.90;99.90
37285;DHT22;23172;53.550;9.964;2023-02-21T02:26:58;10.80;99.90
37285;DHT22;23172;53.550;9.964;2023-02-21T02:32:23;10.80;99.90
37285;DHT22;23172;53.550;9.964;2023-02-21T02:37:34;10.80;99.90
37285;DHT22;23172;53.550;9.964;2023-02-21T02:42:48;10.80;99.90
37285;DHT22;23172;53.550;9.964;2023-02-21T02:47:57;10.80;99.90
37285;DHT22;23172;53.550;9.964;2023-02-21T02:53:03;10.80;99.90
37285;DHT22;23172;53.550;9.964;2023-02-21T02:58:05;10.80;99.90
37285;DHT22;23172;53.550;9.964;2023-02-21T03:03:21;10.80;99.90
37285;DHT22;23172;53.550;9.964;2023-02-21T03:08:39;10.90;99.90
37285;DHT22;23172;53.550;9.964;2023-02-21T03:13:46;10.80;99.90
37285;DHT22;23172;53.550;9.964;2023-02-21T03:18:51;10.90;99.90
37285;DHT22;23172;53.550;9.964;2023-02-21T03:23:59;10.80;99.90
37285;DHT22;23172;53.550;9.964;2023-02-21T03:29:02;10.80;99.90
37285;DHT22;23172;53.550;9.964;2023-02-21T03:34:05;10.80;99.90
37285;DHT22;23172;53.550;9.964;2023-02-21T03:39:08;10.80;99.90
37285;DHT22;23172;53.550;9.964;2023-02-21T03:44:10;10.80;99.90
37285;DHT22;23172;53.550;9.964;2023-02-21T03:49:11;10.80;99.90
37285;DHT22;23172;53.550;9.964;2023-02-21T03:54:15;10.70;99.90
37285;DHT22;23172;53.550;9.964;2023-02-21T03:59:17;10.70;99.90
37285;DHT22;23172;53.550;9.964;2023-02-21T04:04:18;10.70;99.90
37285;DHT22;23172;53.550;9.964;2023-02-21T04:09:22;10.70;99.90
37285;DHT22;23172;53.550;9.964;2023-02-21T04:14:25;10.70;99.90
37285;DHT22;23172;53.550;9.964;2023-02-21T04:19:27;10.70;99.90
37285;DHT22;23172;53.550;9.964;2023-02-21T04:24:30;10.70;99.90
37285;DHT22;23172;53.550;9.964;2023-02-21T04:29:32;10.70;99.90
37285;DHT22;23172;53.550;9.964;2023-02-21T04:34:34;10.70;99.90
37285;DHT22;23172;53.550;9.964;2023-02-21T04:39:37;10.70;99.90
37285;DHT22;23172;53.550;9.964;2023-02-21T04:44:38;10.60;99.90
37285;DHT22;23172;53.550;9.964;2023-02-21T04:49:40;10.50;99.90
37285;DHT22;23172;53.550;9.964;2023-02-21T04:54:44;10.50;99.90
37285;DHT22;23172;53.550;9.964;2023-02-21T04:59:46;10.40;99.90
37285;DHT22;23172;53.550;9.964;2023-02-21T05:04:48;10.30;99.90
37285;DHT22;23172;53.550;9.964;2023-02-21T05:09:51;10.30;99.90
37285;DHT22;23172;53.550;9.964;2023-02-21T05:14:53;10.20;99.90
37285;DHT22;23172;53.550;9.964;2023-02-21T05:19:55;10.20;99.90
37285;DHT22;23172;53.550;9.964;2023-02-21T05:24:58;10.20;99.90
37285;DHT22;23172;53.550;9.964;2023-02-21T05:30:00;10.20;99.90
37285;DHT22;23172;53.550;9.964;2023-02-21T05:35:03;10.10;99.90
37285;DHT22;23172;53.550;9.964;2023-02-21T05:40:09;10.20;99.90
37285;DHT22;23172;53.550;9.964;2023-02-21T05:45:12;10.20;99.90
37285;DHT22;23172;53.550;9.964;2023-02-21T05:50:14;10.10;99.90
37285;DHT22;23172;53.550;9.964;2023-02-21T05:55:17;10.10;99.90
37285;DHT22;23172;53.550;9.964;2023-02-21T06:00:22;10.10;99.90
37285;DHT22;23172;53.550;9.964;2023-02-21T06:05:24;10.10;99.90
37285;DHT22;23172;53.550;9.964;2023-02-21T06:10:28;10.10;99.90
37285;DHT22;23172;53.550;9.964;2023-02-21T06:15:29;10.10;99.90
37285;DHT22;23172;53.550;9.964;2023-02-21T06:20:31;10.10;99.90
37285;DHT22;23172;53.550;9.964;2023-02-21T06:25:34;10.10;99.90
37285;DHT22;23172;53.550;9.964;2023-02-21T06:30:36;10.10;99.90
37285;DHT22;23172;53.550;9.964;2023-02-21T06:35:38;10.10;99.90
37285;DHT22;23172;53.550;9.964;2023-02-21T06:40:41;10.10;99.90
37285;DHT22;23172;53.550;9.964;2023-02-21T06:45:44;10.10;99.90
37285;DHT22;23172;53.550;9.964;2023-02-21T06:50:46;10.20;99.90
37285;DHT22;23172;53.550;9.964;2023-02-21T06:55:49;10.20;99.90
37285;DHT22;23172;53.550;9.964;2023-02-21T07:00:51;10.20;99.90
37285;DHT22;23172;53.550;9.964;2023-02-21T07:05:53;10.20;99.90
37285;DHT22;23172;53.550;9.964;2023-02-21T07:10:56;10.20;99.90
37285;DHT22;23172;53.550;9.964;2023-02-21T07:15:58;10.30;99.90
37285;DHT22;23172;53.550;9.964;2023-02-21T07:21:00;10.40;99.90
37285;DHT22;23172;53.550;9.964;2023-02-21T07:26:03;10.40;99.90
37285;DHT22;23172;53.550;9.964;2023-02-21T07:31:05;10.40;99.90
37285;DHT22;23172;53.550;9.964;2023-02-21T07:36:10;10.50;99.90
37285;DHT22;23172;53.550;9.964;2023-02-21T07:41:19;10.50;99.90
37285;DHT22;23172;53.550;9.964;2023-02-21T07:46:26;10.60;99.90
37285;DHT22;23172;53.550;9.964;2023-02-21T07:51:28;10.60;99.90
37285;DHT22;23172;53.550;9.964;2023-02-21T07:56:31;10.70;99.90
37285;DHT22;23172;53.550;9.964;2023-02-21T08:01:33;10.70;99.90
37285;DHT22;23172;53.550;9.964;2023-02-21T08:06:35;10.60;99.90
37285;DHT22;23172;53.550;9.964;2023-02-21T08:11:38;10.60;99.90
37285;DHT22;23172;53.550;9.964;2023-02-21T08:16:40;10.80;99.90
37285;DHT22;23172;53.550;9.964;2023-02-21T08:21:43;11.00;99.90
37285;DHT22;23172;53.550;9.964;2023-02-21T08:26:47;11.10;99.90
37285;DHT22;23172;53.550;9.964;2023-02-21T08:31:49;11.30;99.90
37285;DHT22;23172;53.550;9.964;2023-02-21T08:36:51;11.30;99.90
37285;DHT22;23172;53.550;9.964;2023-02-21T08:41:54;11.40;99.90
37285;DHT22;23172;53.550;9.964;2023-02-21T08:46:56;11.60;99.90
37285;DHT22;23172;53.550;9.964;2023-02-21T08:51:58;11.70;99.90
37285;DHT22;23172;53.550;9.964;2023-02-21T08:57:01;11.80;99.90
37285;DHT22;23172;53.550;9.964;2023-02-21T09:02:03;11.70;99.90
37285;DHT22;23172;53.550;9.964;2023-02-21T09:07:05;11.90;99.90
37285;DHT22;23172;53.550;9.964;2023-02-21T09:12:08;11.90;99.70
37285;DHT22;23172;53.550;9.964;2023-02-21T09:17:11;12.10;99.80
37285;DHT22;23172;53.550;9.964;2023-02-21T09:22:14;12.20;99.50
37285;DHT22;23172;53.550;9.964;2023-02-21T09:27:17;12.10;99.40
37285;DHT22;23172;53.550;9.964;2023-02-21T09:32:19;12.30;99.30
37285;DHT22;23172;53.550;9.964;2023-02-21T09:37:21;12.40;98.90
37285;DHT22;23172;53.550;9.964;2023-02-21T09:42:28;12.30;98.50
37285;DHT22;23172;53.550;9.964;2023-02-21T09:47:33;12.40;98.70
37285;DHT22;23172;53.550;9.964;2023-02-21T09:52:39;12.40;98.50
37285;DHT22;23172;53.550;9.964;2023-02-21T09:57:43;12.60;98.30
37285;DHT22;23172;53.550;9.964;2023-02-21T10:02:53;12.70;97.90
37285;DHT22;23172;53.550;9.964;2023-02-21T10:08:00;12.70;97.80
37285;DHT22;23172;53.550;9.964;2023-02-21T10:13:13;13.00;97.60
37285;DHT22;23172;53.550;9.964;2023-02-21T10:18:27;13.20;97.00
37285;DHT22;23172;53.550;9.964;2023-02-21T10:23:35;13.20;96.80
37285;DHT22;23172;53.550;9.964;2023-02-21T10:28:39;13.40;96.50
37285;DHT22;23172;53.550;9.964;2023-02-21T10:33:41;13.50;95.90
37285;DHT22;23172;53.550;9.964;2023-02-21T10:38:51;13.40;95.10
37285;DHT22;23172;53.550;9.964;2023-02-21T10:43:59;13.30;94.90
37285;DHT22;23172;53.550;9.964;2023-02-21T10:49:18;13.70;95.10
37285;DHT22;23172;53.550;9.964;2023-02-21T10:54:24;14.10;94.20
37285;DHT22;23172;53.550;9.964;2023-02-21T10:59:29;14.20;93.80
37285;DHT22;23172;53.550;9.964;2023-02-21T11:04:33;14.30;93.30
37285;DHT22;23172;53.550;9.964;2023-02-21T11:09:38;14.40;92.70
37285;DHT22;23172;53.550;9.964;2023-02-21T11:14:42;14.10;92.50
37285;DHT22;23172;53.550;9.964;2023-02-21T11:19:47;14.10;92.40
37285;DHT22;23172;53.550;9.964;2023-02-21T11:25:02;14.00;91.80
37285;DHT22;23172;53.550;9.964;2023-02-21T11:30:15;13.90;92.00
37285;DHT22;23172;53.550;9.964;2023-02-21T11:35:23;13.90;92.00
37285;DHT22;23172;53.550;9.964;2023-02-21T11:40:30;13.90;92.00
37285;DHT22;23172;53.550;9.964;2023-02-21T11:45:37;14.10;92.00
37285;DHT22;23172;53.550;9.964;2023-02-21T11:50:45;13.90;92.30
37285;DHT22;23172;53.550;9.964;2023-02-21T11:55:55;13.90;92.20
37285;DHT22;23172;53.550;9.964;2023-02-21T12:01:05;13.90;92.40
37285;DHT22;23172;53.550;9.964;2023-02-21T12:06:12;14.00;92.40
37285;DHT22;23172;53.550;9.964;2023-02-21T12:16:49;13.80;92.60
37285;DHT22;23172;53.550;9.964;2023-02-21T12:22:00;13.70;93.00
37285;DHT22;23172;53.550;9.964;2023-02-21T12:27:10;13.30;93.70
37285;DHT22;23172;53.550;9.964;2023-02-21T12:32:28;13.30;94.20
37285;DHT22;23172;53.550;9.964;2023-02-21T12:37:39;13.20;94.60
37285;DHT22;23172;53.550;9.964;2023-02-21T12:43:02;13.00;94.70
37285;DHT22;23172;53.550;9.964;2023-02-21T12:48:11;13.20;94.90
37285;DHT22;23172;53.550;9.964;2023-02-21T12:53:17;13.20;94.90
37285;DHT22;23172;53.550;9.964;2023-02-21T12:58:23;13.30;94.90
37285;DHT22;23172;53.550;9.964;2023-02-21T13:03:41;13.20;95.00
37285;DHT22;23172;53.550;9.964;2023-02-21T13:08:57;13.20;95.00
37285;DHT22;23172;53.550;9.964;2023-02-21T13:14:01;13.00;95.20
37285;DHT22;23172;53.550;9.964;2023-02-21T13:19:08;13.20;95.30
37285;DHT22;23172;53.550;9.964;2023-02-21T13:24:28;13.40;95.00
37285;DHT22;23172;53.550;9.964;2023-02-21T13:29:36;13.60;95.00
37285;DHT22;23172;53.550;9.964;2023-02-21T13:34:43;13.70;94.70
37285;DHT22;23172;53.550;9.964;2023-02-21T13:39:51;13.80;94.30
37285;DHT22;23172;53.550;9.964;2023-02-21T13:45:09;13.60;94.30
37285;DHT22;23172;53.550;9.964;2023-02-21T13:56:14;13.80;94.30
37285;DHT22;23172;53.550;9.964;2023-02-21T14:06:55;13.30;94.20
37285;DHT22;23172;53.550;9.964;2023-02-21T14:12:01;13.20;94.30
37285;DHT22;23172;53.550;9.964;2023-02-21T14:17:05;13.10;94.50
37285;DHT22;23172;53.550;9.964;2023-02-21T14:22:12;12.90;94.30
37285;DHT22;23172;53.550;9.964;2023-02-21T14:27:34;12.80;94.50
37285;DHT22;23172;53.550;9.964;2023-02-21T14:32:40;12.70;94.70
37285;DHT22;23172;53.550;9.964;2023-02-21T14:37:50;12.70;94.70
37285;DHT22;23172;53.550;9.964;2023-02-21T14:43:09;12.60;95.00
37285;DHT22;23172;53.550;9.964;2023-02-21T14:48:34;12.50;95.30
37285;DHT22;23172;53.550;9.964;2023-02-21T14:54:00;12.30;95.50
37285;DHT22;23172;53.550;9.964;2023-02-21T14:59:53;12.30;95.80
37285;DHT22;23172;53.550;9.964;2023-02-21T15:05:02;12.20;95.90
37285;DHT22;23172;53.550;9.964;2023-02-21T15:10:14;12.20;95.80
37285;DHT22;23172;53.550;9.964;2023-02-21T15:15:21;12.10;95.90
37285;DHT22;23172;53.550;9.964;2023-02-21T15:20:23;12.10;96.00
37285;DHT22;23172;53.550;9.964;2023-02-21T15:25:24;12.10;96.20
37285;DHT22;23172;53.550;9.964;2023-02-21T15:30:33;12.10;96.30
37285;DHT22;23172;53.550;9.964;2023-02-21T15:35:38;12.10;96.30
37285;DHT22;23172;53.550;9.964;2023-02-21T15:40:41;12.00;96.50
37285;DHT22;23172;53.550;9.964;2023-02-21T15:45:47;12.00;96.60
37285;DHT22;23172;53.550;9.964;2023-02-21T15:50:49;11.90;97.10
37285;DHT22;23172;53.550;9.964;2023-02-21T15:55:52;11.70;97.40
37285;DHT22;23172;53.550;9.964;2023-02-21T16:01:13;11.60;97.70
37285;DHT22;23172;53.550;9.964;2023-02-21T16:06:23;11.60;98.20
37285;DHT22;23172;53.550;9.964;2023-02-21T16:11:38;11.50;98.50
37285;DHT22;23172;53.550;9.964;2023-02-21T16:16:42;11.40;99.20
37285;DHT22;23172;53.550;9.964;2023-02-21T16:21:44;11.30;99.50
37285;DHT22;23172;53.550;9.964;2023-02-21T16:27:03;11.20;99.70
37285;DHT22;23172;53.550;9.964;2023-02-21T16:32:15;11.20;99.90
37285;DHT22;23172;53.550;9.964;2023-02-21T16:37:17;11.10;99.90
37285;DHT22;23172;53.550;9.964;2023-02-21T16:42:19;11.00;99.90
37285;DHT22;23172;53.550;9.964;2023-02-21T16:47:22;11.00;99.90
37285;DHT22;23172;53.550;9.964;2023-02-21T16:52:24;10.90;99.90
37285;DHT22;23172;53.550;9.964;2023-02-21T16:57:26;10.90;99.90
37285;DHT22;23172;53.550;9.964;2023-02-21T17:02:29;10.90;99.90
37285;DHT22;23172;53.550;9.964;2023-02-21T17:07:31;10.90;99.90
37285;DHT22;23172;53.550;9.964;2023-02-21T17:12:33;10.90;99.90
37285;DHT22;23172;53.550;9.964;2023-02-21T17:17:36;10.80;99.90
37285;DHT22;23172;53.550;9.964;2023-02-21T17:22:38;10.80;99.90
37285;DHT22;23172;53.550;9.964;2023-02-21T17:27:40;10.70;99.90
37285;DHT22;23172;53.550;9.964;2023-02-21T17:32:43;10.70;99.90
37285;DHT22;23172;53.550;9.964;2023-02-21T17:37:46;10.70;99.90
37285;DHT22;23172;53.550;9.964;2023-02-21T17:42:49;10.70;99.90
37285;DHT22;23172;53.550;9.964;2023-02-21T17:47:52;10.70;99.90
37285;DHT22;23172;53.550;9.964;2023-02-21T17:52:54;10.70;99.90
37285;DHT22;23172;53.550;9.964;2023-02-21T17:57:56;10.70;99.90
37285;DHT22;23172;53.550;9.964;2023-02-21T18:03:00;10.80;99.90
37285;DHT22;23172;53.550;9.964;2023-02-21T18:08:04;10.80;99.90
37285;DHT22;23172;53.550;9.964;2023-02-21T18:13:05;10.90;99.90
37285;DHT22;23172;53.550;9.964;2023-02-21T18:18:09;10.90;99.90
37285;DHT22;23172;53.550;9.964;2023-02-21T18:23:11;10.90;99.90
37285;DHT22;23172;53.550;9.964;2023-02-21T18:28:14;10.80;99.90
37285;DHT22;23172;53.550;9.964;2023-02-21T18:33:17;10.80;99.90
37285;DHT22;23172;53.550;9.964;2023-02-21T18:38:19;10.80;99.90
37285;DHT22;23172;53.550;9.964;2023-02-21T18:43:24;10.90;99.90
37285;DHT22;23172;53.550;9.964;2023-02-21T18:48:29;10.70;99.90
37285;DHT22;23172;53.550;9.964;2023-02-21T18:53:31;10.60;99.90
37285;DHT22;23172;53.550;9.964;2023-02-21T18:58:33;10.70;99.90
37285;DHT22;23172;53.550;9.964;2023-02-21T19:03:36;10.80;99.90
37285;DHT22;23172;53.550;9.964;2023-02-21T19:08:38;10.80;99.90
37285;DHT22;23172;53.550;9.964;2023-02-21T19:13:39;10.80;99.90
37285;DHT22;23172;53.550;9.964;2023-02-21T19:18:47;10.90;99.90
37285;DHT22;23172;53.550;9.964;2023-02-21T19:23:51;10.80;99.90
37285;DHT22;23172;53.550;9.964;2023-02-21T19:28:52;10.80;99.90
37285;DHT22;23172;53.550;9.964;2023-02-21T19:33:56;10.80;99.90
37285;DHT22;23172;53.550;9.964;2023-02-21T19:39:00;10.80;99.90
37285;DHT22;23172;53.550;9.964;2023-02-21T19:44:02;10.80;99.90
37285;DHT22;23172;53.550;9.964;2023-02-21T19:49:06;10.70;99.90
37285;DHT22;23172;53.550;9.964;2023-02-21T19:54:19;10.80;99.90
37285;DHT22;23172;53.550;9.964;2023-02-21T19:59:21;10.80;99.90
37285;DHT22;23172;53.550;9.964;2023-02-21T20:04:26;10.80;99.90
37285;DHT22;23172;53.550;9.964;2023-02-21T20:09:29;10.70;99.90
37285;DHT22;23172;53.550;9.964;2023-02-21T20:14:31;10.80;99.90
37285;DHT22;23172;53.550;9.964;2023-02-21T20:19:35;10.80;99.90
37285;DHT22;23172;53.550;9.964;2023-02-21T20:24:36;10.80;99.90
37285;DHT22;23172;53.550;9.964;2023-02-21T20:29:38;10.80;99.90
37285;DHT22;23172;53.550;9.964;2023-02-21T20:34:41;10.80;99.90
37285;DHT22;23172;53.550;9.964;2023-02-21T20:39:43;10.80;99.90
37285;DHT22;23172;53.550;9.964;2023-02-21T20:44:45;10.80;99.90
37285;DHT22;23172;53.550;9.964;2023-02-21T20:49:49;10.80;99.90
37285;DHT22;23172;53.550;9.964;2023-02-21T20:54:51;10.80;99.90
37285;DHT22;23172;53.550;9.964;2023-02-21T20:59:52;10.80;99.90
37285;DHT22;23172;53.550;9.964;2023-02-21T21:04:56;10.80;99.90
37285;DHT22;23172;53.550;9.964;2023-02-21T21:09:57;10.80;99.90
37285;DHT22;23172;53.550;9.964;2023-02-21T21:14:59;10.80;99.90
37285;DHT22;23172;53.550;9.964;2023-02-21T21:20:03;10.80;99.90
37285;DHT22;23172;53.550;9.964;2023-02-21T21:25:08;10.80;99.90
37285;DHT22;23172;53.550;9.964;2023-02-21T21:30:11;10.80;99.90
37285;DHT22;23172;53.550;9.964;2023-02-21T21:35:19;10.80;99.90
37285;DHT22;23172;53.550;9.964;2023-02-21T21:40:22;10.80;99.90
37285;DHT22;23172;53.550;9.964;2023-02-21T21:45:25;10.80;99.90
37285;DHT22;23172;53.550;9.964;2023-02-21T21:50:28;10.90;99.90
37285;DHT22;23172;53.550;9.964;2023-02-21T21:55:30;10.90;99.90
37285;DHT22;23172;53.550;9.964;2023-02-21T22:00:32;10.90;99.90
37285;DHT22;23172;53.550;9.964;2023-02-21T22:05:42;10.80;99.90
37285;DHT22;23172;53.550;9.964;2023-02-21T22:10:45;10.80;99.90
37285;DHT22;23172;53.550;9.964;2023-02-21T22:15:47;10.80;99.90
37285;DHT22;23172;53.550;9.964;2023-02-21T22:20:50;10.90;99.90
37285;DHT22;23172;53.550;9.964;2023-02-21T22:25:52;10.90;99.90
37285;DHT22;23172;53.550;9.964;2023-02-21T22:30:56;10.90;99.90
37285;DHT22;23172;53.550;9.964;2023-02-21T22:35:59;10.90;99.90
37285;DHT22;23172;53.550;9.964;2023-02-21T22:41:01;10.90;99.90
37285;DHT22;23172;53.550;9.964;2023-02-21T22:46:04;10.90;99.90
37285;DHT22;23172;53.550;9.964;2023-02-21T22:51:08;10.90;99.90
37285;DHT22;23172;53.550;9.964;2023-02-21T22:56:12;10.90;99.90
37285;DHT22;23172;53.550;9.964;2023-02-21T23:01:15;10.90;99.90
37285;DHT22;23172;53.550;9.964;2023-02-21T23:06:22;10.90;99.90
37285;DHT22;23172;53.550;9.964;2023-02-21T23:11:24;10.90;99.90
37285;DHT22;23172;53.550;9.964;2023-02-21T23:16:26;10.90;99.90
37285;DHT22;23172;53.550;9.964;2023-02-21T23:21:29;10.90;99.90
37285;DHT22;23172;53.550;9.964;2023-02-21T23:26:31;11.00;99.90
37285;DHT22;23172;53.550;9.964;2023-02-21T23:31:33;11.00;99.90
37285;DHT22;23172;53.550;9.964;2023-02-21T23:36:36;11.00;99.90
37285;DHT22;23172;53.550;9.964;2023-02-21T23:41:39;11.00;99.90
37285;DHT22;23172;53.550;9.964;2023-02-21T23:46:42;11.00;99.90
37285;DHT22;23172;53.550;9.964;2023-02-21T23:51:46;10.90;99.90
37285;DHT22;23172;53.550;9.964;2023-02-21T23:56:51;10.90;99.90
